Raeren, Belgium
Current Conditions -  °F | °C
As of 10:53 PM on Friday 31 Oct 2014 (Local Time) from EBLB Reporting Station
Clear Clear  
Wind Chill: 46°   Ceiling: Unl
Heat Index: 46°   Visibility: 2.3mi
Dew Point: 46°   Wind: 3mph
Humidity: 100%   Direction: 260°W
Pressure: 30.24"   Gusts: NA
Location:  50.67°N, 6.12°E
Report Text: EBLB 312153Z AUTO 26003KT 3800 NCD 08/08 Q1024 GRN
Loading
Personal Weather Stations






























Interactive Weather Map
Tropical Storm Tracking
New forecast layout! Learn more

10-Day Weather Forecast

Advertisements
Track Severe Weather on mobile